Navarino — VRQD6 — position and weather

sailwx.info

Track history (hours):
 
Tides and Currents Weather Stations Pressure Air Temp Water Temp Dewpoint Dewpoint Depression Visibility Wind Speed Wind Dir Waves Ship Positions

Navarino

Last reported at 2018-Jun-16 23:12 UTC. Time now 2018-Jun-19 18:30 UTC.
Position N 31°05' E 122°42'.

Length 335 m; draft 8.9 m.

Type: Ship (hazmat cat D). MMSI: 477252600.

Date/timePositionNaut miles runAvg speedWind from/ knotsBaromVisibWave heightAir tempDewpointWater temp
2018-Jun-16 23:12N 31°05' E 122°42'8 9.7
2018-Jun-16 22:25N 31°05' E 122°33'611.5
2018-Jun-16 21:56N 31°06' E 122°27'613.3
2018-Jun-16 21:30N 31°06' E 122°20'914.7
2018-Jun-16 20:55N 31°10' E 122°12'614.9
2018-Jun-16 20:30N 31°14' E 122°06'713.9
2018-Jun-16 20:00N 31°15' E 121°58'713.5
2018-Jun-16 19:30N 31°17' E 121°50'714.3
2018-Jun-16 18:59N 31°19' E 121°42'10 0.7
2018-Jun-16 03:36N 31°16' E 121°54'111.4
2018-Jun-16 03:30N 31°16' E 121°55'611.6
2018-Jun-16 02:58N 31°14' E 122°02'12 9.9
2018-Jun-16 01:47N 31°09' E 122°14'310.5
2018-Jun-16 01:30N 31°07' E 122°17'611.0
2018-Jun-16 00:59N 31°06' E 122°23'  
Track history (hours):
 
Tides and Currents Weather Stations Pressure Air Temp Water Temp Dewpoint Dewpoint Depression Visibility Wind Speed Wind Dir Waves Ship Positions

Navarino

Last reported at 2018-Jun-16 23:12 UTC. Time now 2018-Jun-19 18:30 UTC.
Position N 31°05' E 122°42'.

Length 335 m; draft 8.9 m.

Type: Ship (hazmat cat D). MMSI: 477252600.

Date/timePositionNaut miles runAvg speedWind from/ knotsBaromVisibWave heightAir tempDewpointWater temp
2018-Jun-16 23:12N 31°05' E 122°42'8 9.7
2018-Jun-16 22:25N 31°05' E 122°33'611.5
2018-Jun-16 21:56N 31°06' E 122°27'613.3
2018-Jun-16 21:30N 31°06' E 122°20'914.7
2018-Jun-16 20:55N 31°10' E 122°12'614.9
2018-Jun-16 20:30N 31°14' E 122°06'713.9
2018-Jun-16 20:00N 31°15' E 121°58'713.5
2018-Jun-16 19:30N 31°17' E 121°50'714.3
2018-Jun-16 18:59N 31°19' E 121°42'10 0.7
2018-Jun-16 03:36N 31°16' E 121°54'111.4
2018-Jun-16 03:30N 31°16' E 121°55'611.6
2018-Jun-16 02:58N 31°14' E 122°02'12 9.9
2018-Jun-16 01:47N 31°09' E 122°14'310.5
2018-Jun-16 01:30N 31°07' E 122°17'611.0
2018-Jun-16 00:59N 31°06' E 122°23'  

Dump ship's entire track history